sensor_id;sensor_type;location;lat;lon;timestamp;P1;durP1;ratioP1;P2;durP2;ratioP2
48777;SDS011;34578;0.000;0.000;2022-10-15T00:00:12;6.15;;;2.22;;
48777;SDS011;34578;0.000;0.000;2022-10-15T00:05:13;1.80;;;1.30;;
48777;SDS011;34578;0.000;0.000;2022-10-15T00:10:13;3.72;;;1.67;;
48777;SDS011;34578;0.000;0.000;2022-10-15T00:15:14;1.73;;;1.05;;
48777;SDS011;34578;0.000;0.000;2022-10-15T00:20:14;1.95;;;1.38;;
48777;SDS011;34578;0.000;0.000;2022-10-15T00:25:15;3.17;;;1.50;;
48777;SDS011;34578;0.000;0.000;2022-10-15T00:30:15;2.38;;;1.40;;
48777;SDS011;34578;0.000;0.000;2022-10-15T00:35:17;1.80;;;1.40;;
48777;SDS011;34578;0.000;0.000;2022-10-15T00:40:18;2.20;;;1.50;;
48777;SDS011;34578;0.000;0.000;2022-10-15T00:45:19;2.20;;;1.30;;
48777;SDS011;34578;0.000;0.000;2022-10-15T00:50:23;3.60;;;1.45;;
48777;SDS011;34578;0.000;0.000;2022-10-15T00:55:30;1.23;;;1.10;;
48777;SDS011;34578;0.000;0.000;2022-10-15T01:00:33;2.13;;;1.23;;
48777;SDS011;34578;0.000;0.000;2022-10-15T01:05:34;1.30;;;1.15;;
48777;SDS011;34578;0.000;0.000;2022-10-15T01:10:43;2.05;;;1.38;;
48777;SDS011;34578;0.000;0.000;2022-10-15T01:15:55;2.80;;;1.40;;
48777;SDS011;34578;0.000;0.000;2022-10-15T01:36:57;3.00;;;1.25;;
48777;SDS011;34578;0.000;0.000;2022-10-15T01:42:18;1.50;;;1.23;;
48777;SDS011;34578;0.000;0.000;2022-10-15T01:47:30;1.65;;;1.30;;
48777;SDS011;34578;0.000;0.000;2022-10-15T01:52:35;2.47;;;1.60;;
48777;SDS011;34578;0.000;0.000;2022-10-15T01:57:40;2.90;;;1.25;;
48777;SDS011;34578;0.000;0.000;2022-10-15T02:02:42;2.28;;;1.20;;
48777;SDS011;34578;0.000;0.000;2022-10-15T02:07:48;1.88;;;1.33;;
48777;SDS011;34578;0.000;0.000;2022-10-15T02:13:16;1.92;;;1.40;;
48777;SDS011;34578;0.000;0.000;2022-10-15T02:23:48;4.70;;;3.08;;
48777;SDS011;34578;0.000;0.000;2022-10-15T02:28:52;1.67;;;1.10;;
48777;SDS011;34578;0.000;0.000;2022-10-15T02:33:54;1.08;;;0.98;;
48777;SDS011;34578;0.000;0.000;2022-10-15T02:38:58;2.55;;;1.08;;
48777;SDS011;34578;0.000;0.000;2022-10-15T02:44:01;1.65;;;1.35;;
48777;SDS011;34578;0.000;0.000;2022-10-15T02:49:03;2.10;;;1.25;;
48777;SDS011;34578;0.000;0.000;2022-10-15T02:54:04;2.45;;;1.60;;
48777;SDS011;34578;0.000;0.000;2022-10-15T02:59:06;1.25;;;1.00;;
48777;SDS011;34578;0.000;0.000;2022-10-15T03:04:07;2.92;;;1.00;;
48777;SDS011;34578;0.000;0.000;2022-10-15T03:09:07;2.53;;;1.08;;
48777;SDS011;34578;0.000;0.000;2022-10-15T03:14:08;1.35;;;1.13;;
48777;SDS011;34578;0.000;0.000;2022-10-15T03:19:09;1.73;;;1.15;;
48777;SDS011;34578;0.000;0.000;2022-10-15T03:24:09;1.25;;;1.15;;
48777;SDS011;34578;0.000;0.000;2022-10-15T03:29:10;1.88;;;0.90;;
48777;SDS011;34578;0.000;0.000;2022-10-15T03:34:23;3.05;;;1.35;;
48777;SDS011;34578;0.000;0.000;2022-10-15T03:39:23;3.60;;;0.82;;
48777;SDS011;34578;0.000;0.000;2022-10-15T03:44:28;1.10;;;0.90;;
48777;SDS011;34578;0.000;0.000;2022-10-15T03:49:41;1.75;;;1.30;;
48777;SDS011;34578;0.000;0.000;2022-10-15T03:54:41;1.15;;;1.00;;
48777;SDS011;34578;0.000;0.000;2022-10-15T03:59:43;1.30;;;0.80;;
48777;SDS011;34578;0.000;0.000;2022-10-15T04:04:44;0.80;;;0.80;;
48777;SDS011;34578;0.000;0.000;2022-10-15T04:09:45;4.18;;;0.93;;
48777;SDS011;34578;0.000;0.000;2022-10-15T04:14:59;1.38;;;0.95;;
48777;SDS011;34578;0.000;0.000;2022-10-15T04:20:00;3.17;;;1.07;;
48777;SDS011;34578;0.000;0.000;2022-10-15T04:25:00;0.95;;;0.77;;
48777;SDS011;34578;0.000;0.000;2022-10-15T04:30:02;1.83;;;1.23;;
48777;SDS011;34578;0.000;0.000;2022-10-15T04:35:03;1.35;;;0.98;;
48777;SDS011;34578;0.000;0.000;2022-10-15T04:40:21;2.38;;;1.60;;
48777;SDS011;34578;0.000;0.000;2022-10-15T04:45:21;2.17;;;1.00;;
48777;SDS011;34578;0.000;0.000;2022-10-15T04:50:22;0.75;;;0.70;;
48777;SDS011;34578;0.000;0.000;2022-10-15T04:55:41;0.93;;;0.82;;
48777;SDS011;34578;0.000;0.000;2022-10-15T05:00:41;1.53;;;0.77;;
48777;SDS011;34578;0.000;0.000;2022-10-15T05:05:44;1.23;;;0.80;;
48777;SDS011;34578;0.000;0.000;2022-10-15T05:10:45;2.70;;;1.52;;
48777;SDS011;34578;0.000;0.000;2022-10-15T05:15:45;2.55;;;1.15;;
48777;SDS011;34578;0.000;0.000;2022-10-15T05:20:46;2.03;;;0.82;;
48777;SDS011;34578;0.000;0.000;2022-10-15T05:25:50;1.90;;;1.45;;
48777;SDS011;34578;0.000;0.000;2022-10-15T05:30:55;1.58;;;0.60;;
48777;SDS011;34578;0.000;0.000;2022-10-15T05:41:10;0.70;;;0.50;;
48777;SDS011;34578;0.000;0.000;2022-10-15T05:46:11;1.45;;;0.93;;
48777;SDS011;34578;0.000;0.000;2022-10-15T05:51:11;1.92;;;0.95;;
48777;SDS011;34578;0.000;0.000;2022-10-15T05:56:13;1.73;;;0.85;;
48777;SDS011;34578;0.000;0.000;2022-10-15T06:01:14;1.95;;;0.70;;
48777;SDS011;34578;0.000;0.000;2022-10-15T06:06:16;1.25;;;0.80;;
48777;SDS011;34578;0.000;0.000;2022-10-15T06:11:19;3.70;;;0.95;;
48777;SDS011;34578;0.000;0.000;2022-10-15T06:16:20;1.33;;;1.00;;
48777;SDS011;34578;0.000;0.000;2022-10-15T06:21:20;2.07;;;0.67;;
48777;SDS011;34578;0.000;0.000;2022-10-15T06:26:21;1.05;;;0.93;;
48777;SDS011;34578;0.000;0.000;2022-10-15T06:31:22;1.40;;;1.10;;
48777;SDS011;34578;0.000;0.000;2022-10-15T06:36:23;1.97;;;0.67;;
48777;SDS011;34578;0.000;0.000;2022-10-15T06:41:24;1.83;;;0.80;;
48777;SDS011;34578;0.000;0.000;2022-10-15T06:46:25;1.13;;;0.67;;
48777;SDS011;34578;0.000;0.000;2022-10-15T06:51:25;1.63;;;1.00;;
48777;SDS011;34578;0.000;0.000;2022-10-15T06:56:26;3.60;;;1.00;;
48777;SDS011;34578;0.000;0.000;2022-10-15T07:01:26;2.08;;;1.00;;
48777;SDS011;34578;0.000;0.000;2022-10-15T07:06:27;3.88;;;1.40;;
48777;SDS011;34578;0.000;0.000;2022-10-15T07:11:28;1.30;;;0.80;;
48777;SDS011;34578;0.000;0.000;2022-10-15T07:16:28;2.00;;;0.98;;
48777;SDS011;34578;0.000;0.000;2022-10-15T07:21:28;1.23;;;0.90;;
48777;SDS011;34578;0.000;0.000;2022-10-15T07:26:29;1.50;;;0.80;;
48777;SDS011;34578;0.000;0.000;2022-10-15T07:31:30;3.35;;;0.90;;
48777;SDS011;34578;0.000;0.000;2022-10-15T07:36:31;5.07;;;1.33;;
48777;SDS011;34578;0.000;0.000;2022-10-15T07:41:31;2.00;;;1.10;;
48777;SDS011;34578;0.000;0.000;2022-10-15T07:46:32;8.05;;;1.80;;
48777;SDS011;34578;0.000;0.000;2022-10-15T07:51:32;6.23;;;1.00;;
48777;SDS011;34578;0.000;0.000;2022-10-15T07:56:33;4.07;;;1.23;;
48777;SDS011;34578;0.000;0.000;2022-10-15T08:01:33;2.53;;;1.00;;
48777;SDS011;34578;0.000;0.000;2022-10-15T08:06:33;3.63;;;0.90;;
48777;SDS011;34578;0.000;0.000;2022-10-15T08:11:34;6.15;;;1.25;;
48777;SDS011;34578;0.000;0.000;2022-10-15T08:16:35;4.07;;;0.90;;
48777;SDS011;34578;0.000;0.000;2022-10-15T08:21:35;3.70;;;1.23;;
48777;SDS011;34578;0.000;0.000;2022-10-15T08:26:35;4.83;;;1.50;;
48777;SDS011;34578;0.000;0.000;2022-10-15T08:31:36;38.40;;;2.90;;
48777;SDS011;34578;0.000;0.000;2022-10-15T08:36:38;6.90;;;2.13;;
48777;SDS011;34578;0.000;0.000;2022-10-15T08:41:48;5.40;;;2.33;;
48777;SDS011;34578;0.000;0.000;2022-10-15T08:46:58;8.48;;;1.63;;
48777;SDS011;34578;0.000;0.000;2022-10-15T08:52:05;13.00;;;1.75;;
48777;SDS011;34578;0.000;0.000;2022-10-15T09:13:38;6.38;;;1.70;;
48777;SDS011;34578;0.000;0.000;2022-10-15T09:18:41;1.52;;;1.05;;
48777;SDS011;34578;0.000;0.000;2022-10-15T09:23:45;7.78;;;2.67;;
48777;SDS011;34578;0.000;0.000;2022-10-15T09:34:13;5.38;;;1.90;;
48777;SDS011;34578;0.000;0.000;2022-10-15T09:39:33;3.70;;;2.10;;
48777;SDS011;34578;0.000;0.000;2022-10-15T09:44:46;4.70;;;1.10;;
48777;SDS011;34578;0.000;0.000;2022-10-15T09:49:46;4.47;;;1.35;;
48777;SDS011;34578;0.000;0.000;2022-10-15T10:00:09;2.38;;;0.95;;
48777;SDS011;34578;0.000;0.000;2022-10-15T10:10:26;3.40;;;1.60;;
48777;SDS011;34578;0.000;0.000;2022-10-15T10:20:33;8.30;;;2.10;;
48777;SDS011;34578;0.000;0.000;2022-10-15T10:25:36;6.20;;;1.88;;
48777;SDS011;34578;0.000;0.000;2022-10-15T10:30:48;5.60;;;1.90;;
48777;SDS011;34578;0.000;0.000;2022-10-15T10:35:59;13.32;;;1.20;;
48777;SDS011;34578;0.000;0.000;2022-10-15T10:41:05;3.92;;;1.40;;
48777;SDS011;34578;0.000;0.000;2022-10-15T10:51:20;8.77;;;1.20;;
48777;SDS011;34578;0.000;0.000;2022-10-15T10:56:29;5.00;;;1.10;;
48777;SDS011;34578;0.000;0.000;2022-10-15T11:01:33;4.80;;;1.13;;
48777;SDS011;34578;0.000;0.000;2022-10-15T11:32:55;2.92;;;1.75;;
48777;SDS011;34578;0.000;0.000;2022-10-15T11:38:27;4.55;;;1.77;;
48777;SDS011;34578;0.000;0.000;2022-10-15T11:54:15;4.90;;;2.50;;
48777;SDS011;34578;0.000;0.000;2022-10-15T11:59:47;11.50;;;4.57;;
48777;SDS011;34578;0.000;0.000;2022-10-15T12:04:52;11.38;;;5.47;;
48777;SDS011;34578;0.000;0.000;2022-10-15T12:09:59;8.45;;;3.55;;
48777;SDS011;34578;0.000;0.000;2022-10-15T12:20:32;5.88;;;2.33;;
48777;SDS011;34578;0.000;0.000;2022-10-15T12:30:33;13.67;;;3.60;;
48777;SDS011;34578;0.000;0.000;2022-10-15T12:35:37;15.43;;;4.00;;
48777;SDS011;34578;0.000;0.000;2022-10-15T12:40:38;10.43;;;3.20;;
48777;SDS011;34578;0.000;0.000;2022-10-15T12:45:40;14.80;;;4.15;;
48777;SDS011;34578;0.000;0.000;2022-10-15T12:50:49;9.13;;;4.60;;
48777;SDS011;34578;0.000;0.000;2022-10-15T13:11:26;8.13;;;3.22;;
48777;SDS011;34578;0.000;0.000;2022-10-15T13:16:28;8.23;;;2.88;;
48777;SDS011;34578;0.000;0.000;2022-10-15T13:21:46;5.85;;;3.30;;
48777;SDS011;34578;0.000;0.000;2022-10-15T13:26:51;7.10;;;3.80;;
48777;SDS011;34578;0.000;0.000;2022-10-15T13:31:54;6.68;;;2.83;;
48777;SDS011;34578;0.000;0.000;2022-10-15T13:36:57;5.38;;;3.05;;
48777;SDS011;34578;0.000;0.000;2022-10-15T13:47:25;4.70;;;2.90;;
48777;SDS011;34578;0.000;0.000;2022-10-15T13:52:36;6.85;;;3.33;;
48777;SDS011;34578;0.000;0.000;2022-10-15T13:57:42;10.07;;;3.13;;
48777;SDS011;34578;0.000;0.000;2022-10-15T14:02:43;4.85;;;3.03;;
48777;SDS011;34578;0.000;0.000;2022-10-15T14:07:52;6.35;;;3.17;;
48777;SDS011;34578;0.000;0.000;2022-10-15T14:12:53;6.45;;;3.25;;
48777;SDS011;34578;0.000;0.000;2022-10-15T14:17:54;10.17;;;3.10;;
48777;SDS011;34578;0.000;0.000;2022-10-15T14:22:54;4.47;;;3.10;;
48777;SDS011;34578;0.000;0.000;2022-10-15T14:27:55;6.53;;;2.83;;
48777;SDS011;34578;0.000;0.000;2022-10-15T14:32:55;4.93;;;2.80;;
48777;SDS011;34578;0.000;0.000;2022-10-15T14:43:15;14.65;;;3.15;;
48777;SDS011;34578;0.000;0.000;2022-10-15T14:48:18;10.38;;;3.13;;
48777;SDS011;34578;0.000;0.000;2022-10-15T14:53:24;11.50;;;3.72;;
48777;SDS011;34578;0.000;0.000;2022-10-15T14:58:27;11.70;;;2.38;;
48777;SDS011;34578;0.000;0.000;2022-10-15T15:03:42;8.52;;;3.22;;
48777;SDS011;34578;0.000;0.000;2022-10-15T15:08:46;18.73;;;3.30;;
48777;SDS011;34578;0.000;0.000;2022-10-15T15:13:47;7.72;;;3.22;;
48777;SDS011;34578;0.000;0.000;2022-10-15T15:18:48;11.52;;;2.60;;
48777;SDS011;34578;0.000;0.000;2022-10-15T15:23:48;5.50;;;2.70;;
48777;SDS011;34578;0.000;0.000;2022-10-15T15:28:51;10.25;;;2.97;;
48777;SDS011;34578;0.000;0.000;2022-10-15T15:33:52;10.13;;;3.80;;
48777;SDS011;34578;0.000;0.000;2022-10-15T15:38:52;6.53;;;2.70;;
48777;SDS011;34578;0.000;0.000;2022-10-15T15:43:57;9.15;;;2.60;;
48777;SDS011;34578;0.000;0.000;2022-10-15T15:48:57;7.23;;;2.90;;
48777;SDS011;34578;0.000;0.000;2022-10-15T15:53:58;10.02;;;3.80;;
48777;SDS011;34578;0.000;0.000;2022-10-15T15:59:01;7.47;;;2.53;;
48777;SDS011;34578;0.000;0.000;2022-10-15T16:04:02;6.07;;;2.80;;
48777;SDS011;34578;0.000;0.000;2022-10-15T16:09:02;13.73;;;3.97;;
48777;SDS011;34578;0.000;0.000;2022-10-15T16:14:04;7.43;;;2.75;;
48777;SDS011;34578;0.000;0.000;2022-10-15T16:19:05;8.97;;;2.80;;
48777;SDS011;34578;0.000;0.000;2022-10-15T16:24:05;7.28;;;3.22;;
48777;SDS011;34578;0.000;0.000;2022-10-15T16:29:06;8.80;;;2.63;;
48777;SDS011;34578;0.000;0.000;2022-10-15T16:34:06;9.55;;;2.67;;
48777;SDS011;34578;0.000;0.000;2022-10-15T16:39:08;5.53;;;3.13;;
48777;SDS011;34578;0.000;0.000;2022-10-15T16:44:08;6.15;;;2.53;;
48777;SDS011;34578;0.000;0.000;2022-10-15T16:49:09;5.40;;;2.75;;
48777;SDS011;34578;0.000;0.000;2022-10-15T16:54:12;6.30;;;2.27;;
48777;SDS011;34578;0.000;0.000;2022-10-15T16:59:14;7.50;;;2.65;;
48777;SDS011;34578;0.000;0.000;2022-10-15T17:04:14;7.32;;;2.75;;
48777;SDS011;34578;0.000;0.000;2022-10-15T17:09:15;5.63;;;2.70;;
48777;SDS011;34578;0.000;0.000;2022-10-15T17:14:16;5.93;;;2.50;;
48777;SDS011;34578;0.000;0.000;2022-10-15T17:19:18;9.10;;;3.10;;
48777;SDS011;34578;0.000;0.000;2022-10-15T17:24:20;8.35;;;3.00;;
48777;SDS011;34578;0.000;0.000;2022-10-15T17:29:20;5.38;;;3.00;;
48777;SDS011;34578;0.000;0.000;2022-10-15T17:34:23;6.10;;;2.83;;
48777;SDS011;34578;0.000;0.000;2022-10-15T17:39:24;4.43;;;2.13;;
48777;SDS011;34578;0.000;0.000;2022-10-15T17:44:25;6.87;;;2.47;;
48777;SDS011;34578;0.000;0.000;2022-10-15T17:49:25;4.78;;;2.30;;
48777;SDS011;34578;0.000;0.000;2022-10-15T17:54:26;5.68;;;2.60;;
48777;SDS011;34578;0.000;0.000;2022-10-15T17:59:26;4.23;;;1.60;;
48777;SDS011;34578;0.000;0.000;2022-10-15T18:04:27;2.47;;;2.00;;
48777;SDS011;34578;0.000;0.000;2022-10-15T18:09:28;5.43;;;2.88;;
48777;SDS011;34578;0.000;0.000;2022-10-15T18:14:30;7.80;;;3.20;;
48777;SDS011;34578;0.000;0.000;2022-10-15T18:19:31;5.13;;;2.20;;
48777;SDS011;34578;0.000;0.000;2022-10-15T18:24:31;3.63;;;2.30;;
48777;SDS011;34578;0.000;0.000;2022-10-15T18:29:37;4.32;;;2.15;;
48777;SDS011;34578;0.000;0.000;2022-10-15T18:34:38;8.30;;;2.20;;
48777;SDS011;34578;0.000;0.000;2022-10-15T18:39:39;6.20;;;2.43;;
48777;SDS011;34578;0.000;0.000;2022-10-15T18:44:39;3.78;;;2.20;;
48777;SDS011;34578;0.000;0.000;2022-10-15T18:49:40;4.77;;;1.90;;
48777;SDS011;34578;0.000;0.000;2022-10-15T18:54:42;4.90;;;2.25;;
48777;SDS011;34578;0.000;0.000;2022-10-15T18:59:42;7.73;;;2.57;;
48777;SDS011;34578;0.000;0.000;2022-10-15T19:04:43;5.80;;;2.83;;
48777;SDS011;34578;0.000;0.000;2022-10-15T19:09:43;4.93;;;2.10;;
48777;SDS011;34578;0.000;0.000;2022-10-15T19:14:43;3.77;;;2.10;;
48777;SDS011;34578;0.000;0.000;2022-10-15T19:19:45;5.35;;;2.13;;
48777;SDS011;34578;0.000;0.000;2022-10-15T19:24:49;4.65;;;2.05;;
48777;SDS011;34578;0.000;0.000;2022-10-15T19:29:49;4.83;;;2.47;;
48777;SDS011;34578;0.000;0.000;2022-10-15T19:34:49;3.83;;;2.17;;
48777;SDS011;34578;0.000;0.000;2022-10-15T19:39:50;4.83;;;2.43;;
48777;SDS011;34578;0.000;0.000;2022-10-15T19:44:50;5.65;;;2.83;;
48777;SDS011;34578;0.000;0.000;2022-10-15T19:49:50;4.50;;;2.20;;
48777;SDS011;34578;0.000;0.000;2022-10-15T19:54:51;6.87;;;2.63;;
48777;SDS011;34578;0.000;0.000;2022-10-15T19:59:51;4.23;;;2.00;;
48777;SDS011;34578;0.000;0.000;2022-10-15T20:04:52;2.87;;;2.33;;
48777;SDS011;34578;0.000;0.000;2022-10-15T20:09:52;3.93;;;2.40;;
48777;SDS011;34578;0.000;0.000;2022-10-15T20:14:52;3.57;;;2.10;;
48777;SDS011;34578;0.000;0.000;2022-10-15T20:19:53;3.70;;;1.77;;
48777;SDS011;34578;0.000;0.000;2022-10-15T20:24:53;3.33;;;2.37;;
48777;SDS011;34578;0.000;0.000;2022-10-15T20:29:53;4.33;;;2.10;;
48777;SDS011;34578;0.000;0.000;2022-10-15T20:34:54;4.30;;;2.30;;
48777;SDS011;34578;0.000;0.000;2022-10-15T20:39:54;2.90;;;2.20;;
48777;SDS011;34578;0.000;0.000;2022-10-15T20:44:54;6.27;;;2.07;;
48777;SDS011;34578;0.000;0.000;2022-10-15T20:49:55;5.60;;;2.80;;
48777;SDS011;34578;0.000;0.000;2022-10-15T20:54:55;4.03;;;1.95;;
48777;SDS011;34578;0.000;0.000;2022-10-15T20:59:56;2.47;;;1.63;;
48777;SDS011;34578;0.000;0.000;2022-10-15T21:04:56;3.27;;;1.87;;
48777;SDS011;34578;0.000;0.000;2022-10-15T21:09:56;3.60;;;1.90;;
48777;SDS011;34578;0.000;0.000;2022-10-15T21:14:57;2.60;;;2.20;;
48777;SDS011;34578;0.000;0.000;2022-10-15T21:19:58;2.87;;;2.10;;
48777;SDS011;34578;0.000;0.000;2022-10-15T21:24:59;4.75;;;2.08;;
48777;SDS011;34578;0.000;0.000;2022-10-15T21:29:59;3.73;;;1.90;;
48777;SDS011;34578;0.000;0.000;2022-10-15T21:35:00;3.87;;;1.70;;
48777;SDS011;34578;0.000;0.000;2022-10-15T21:40:02;3.28;;;2.00;;
48777;SDS011;34578;0.000;0.000;2022-10-15T21:45:04;1.73;;;1.40;;
48777;SDS011;34578;0.000;0.000;2022-10-15T21:50:04;3.05;;;1.85;;
48777;SDS011;34578;0.000;0.000;2022-10-15T21:55:05;5.95;;;2.97;;
48777;SDS011;34578;0.000;0.000;2022-10-15T22:00:06;3.17;;;1.98;;
48777;SDS011;34578;0.000;0.000;2022-10-15T22:05:15;4.45;;;1.95;;
48777;SDS011;34578;0.000;0.000;2022-10-15T22:10:16;4.07;;;2.05;;
48777;SDS011;34578;0.000;0.000;2022-10-15T22:15:16;2.70;;;1.80;;
48777;SDS011;34578;0.000;0.000;2022-10-15T22:20:17;2.92;;;1.60;;
48777;SDS011;34578;0.000;0.000;2022-10-15T22:25:17;2.30;;;1.50;;
48777;SDS011;34578;0.000;0.000;2022-10-15T22:30:17;2.60;;;2.07;;
48777;SDS011;34578;0.000;0.000;2022-10-15T22:35:18;2.33;;;1.80;;
48777;SDS011;34578;0.000;0.000;2022-10-15T22:40:18;3.43;;;1.33;;
48777;SDS011;34578;0.000;0.000;2022-10-15T22:45:19;3.20;;;1.67;;
48777;SDS011;34578;0.000;0.000;2022-10-15T22:50:19;3.30;;;1.70;;
48777;SDS011;34578;0.000;0.000;2022-10-15T22:55:20;3.88;;;1.77;;
48777;SDS011;34578;0.000;0.000;2022-10-15T23:00:20;6.57;;;2.17;;
48777;SDS011;34578;0.000;0.000;2022-10-15T23:05:20;2.37;;;1.63;;
48777;SDS011;34578;0.000;0.000;2022-10-15T23:10:21;1.87;;;1.60;;
48777;SDS011;34578;0.000;0.000;2022-10-15T23:15:21;1.92;;;1.25;;
48777;SDS011;34578;0.000;0.000;2022-10-15T23:20:21;2.07;;;1.43;;
48777;SDS011;34578;0.000;0.000;2022-10-15T23:25:22;2.90;;;1.33;;
48777;SDS011;34578;0.000;0.000;2022-10-15T23:30:22;2.37;;;1.57;;
48777;SDS011;34578;0.000;0.000;2022-10-15T23:35:23;2.08;;;1.40;;
48777;SDS011;34578;0.000;0.000;2022-10-15T23:40:23;2.43;;;2.00;;
48777;SDS011;34578;0.000;0.000;2022-10-15T23:45:24;1.90;;;1.42;;
48777;SDS011;34578;0.000;0.000;2022-10-15T23:50:24;5.00;;;2.10;;
48777;SDS011;34578;0.000;0.000;2022-10-15T23:55:24;2.00;;;1.20;;
